createdAt,value
2023-05-23T00:01:31.674Z,16.50
2023-05-23T00:04:03.615Z,17.52
2023-05-23T00:06:32.597Z,17.70
2023-05-23T00:09:05.056Z,19.35
2023-05-23T00:13:12.995Z,19.98
2023-05-23T00:16:56.090Z,18.42
2023-05-23T00:19:23.518Z,20.13
2023-05-23T00:23:19.662Z,19.00
2023-05-23T00:25:53.582Z,20.33
2023-05-23T00:29:36.759Z,22.70
2023-05-23T00:33:22.462Z,22.40
2023-05-23T00:35:50.189Z,26.70
2023-05-23T00:38:18.877Z,22.10
2023-05-23T00:40:47.013Z,24.08
2023-05-23T00:44:30.148Z,19.23
2023-05-23T00:48:12.923Z,24.50
2023-05-23T00:51:56.119Z,24.52
2023-05-23T00:55:40.882Z,24.10
2023-05-23T00:58:11.610Z,22.98
2023-05-23T01:02:01.251Z,23.13
2023-05-23T01:05:44.445Z,24.25
2023-05-23T01:09:31.178Z,24.98
2023-05-23T01:12:49.033Z,28.77
2023-05-23T01:15:52.564Z,29.15
2023-05-23T01:19:15.730Z,27.50
2023-05-23T01:22:03.877Z,29.63
2023-05-23T01:24:58.859Z,38.17
2023-05-23T01:27:56.876Z,42.65
2023-05-23T01:30:31.380Z,40.47
2023-05-23T01:33:01.648Z,47.05
2023-05-23T01:35:32.273Z,41.33
2023-05-23T01:38:03.634Z,46.47
2023-05-23T01:40:33.968Z,37.80
2023-05-23T01:43:02.882Z,32.13
2023-05-23T01:45:32.089Z,26.33
2023-05-23T01:48:01.453Z,27.42
2023-05-23T01:50:30.455Z,27.13
2023-05-23T01:53:05.777Z,24.80
2023-05-23T01:55:35.822Z,21.40
2023-05-23T01:58:07.457Z,19.40
2023-05-23T02:00:36.273Z,22.48
2023-05-23T02:03:05.040Z,22.80
2023-05-23T02:05:37.042Z,20.98
2023-05-23T02:08:06.329Z,24.10
2023-05-23T02:10:35.802Z,24.55
2023-05-23T02:13:04.425Z,25.23
2023-05-23T02:15:32.825Z,24.35
2023-05-23T02:18:03.394Z,23.30
2023-05-23T02:20:32.309Z,29.27
2023-05-23T02:23:01.894Z,27.40
2023-05-23T02:25:31.565Z,30.05
2023-05-23T02:27:59.889Z,32.80
2023-05-23T02:30:33.416Z,36.10
2023-05-23T02:33:07.566Z,31.38
2023-05-23T02:35:35.968Z,37.40
2023-05-23T02:38:09.713Z,37.05
2023-05-23T02:40:40.078Z,36.75
2023-05-23T02:43:10.987Z,35.42
2023-05-23T02:45:42.672Z,33.95
2023-05-23T02:48:12.208Z,32.90
2023-05-23T02:50:39.973Z,37.92
2023-05-23T02:53:10.258Z,33.75
2023-05-23T02:55:38.761Z,42.00
2023-05-23T02:58:10.969Z,42.05
2023-05-23T03:00:39.436Z,43.53
2023-05-23T03:03:07.491Z,40.17
2023-05-23T03:05:35.176Z,35.55
2023-05-23T03:08:03.158Z,34.35
2023-05-23T03:10:31.809Z,35.03
2023-05-23T03:12:59.699Z,31.98
2023-05-23T03:15:28.034Z,36.17
2023-05-23T03:17:56.855Z,35.22
2023-05-23T03:20:24.741Z,42.13
2023-05-23T03:22:52.753Z,38.08
2023-05-23T03:25:21.043Z,36.72
2023-05-23T03:27:59.986Z,31.02
2023-05-23T03:30:35.296Z,39.00
2023-05-23T03:33:05.023Z,30.42
2023-05-23T03:35:33.190Z,27.60
2023-05-23T03:38:01.182Z,24.30
2023-05-23T03:40:30.230Z,28.27
2023-05-23T03:43:07.263Z,34.00
2023-05-23T03:45:37.429Z,32.40
2023-05-23T03:48:12.507Z,31.13
2023-05-23T03:50:41.548Z,33.92
2023-05-23T03:53:09.985Z,27.55
2023-05-23T03:55:40.546Z,30.63
2023-05-23T03:58:10.931Z,29.73
2023-05-23T04:00:43.090Z,26.75
2023-05-23T04:03:15.832Z,29.77
2023-05-23T04:05:44.278Z,30.20
2023-05-23T04:08:14.274Z,32.58
2023-05-23T04:10:42.583Z,50.42
2023-05-23T04:13:11.136Z,40.63
2023-05-23T04:15:40.034Z,37.65
2023-05-23T04:18:11.569Z,51.70
2023-05-23T04:20:39.300Z,43.50
2023-05-23T04:23:33.085Z,41.60
2023-05-23T04:26:01.152Z,39.75
2023-05-23T04:28:37.971Z,49.65
2023-05-23T04:31:06.067Z,56.17
2023-05-23T04:33:39.331Z,58.30
2023-05-23T04:36:10.045Z,65.05
2023-05-23T04:38:44.387Z,62.13
2023-05-23T04:41:17.731Z,58.67
2023-05-23T04:43:59.063Z,56.88
2023-05-23T04:46:42.710Z,56.60
2023-05-23T04:49:34.445Z,57.25
2023-05-23T04:52:07.221Z,49.13
2023-05-23T04:54:45.221Z,57.40
2023-05-23T04:57:13.590Z,56.13
2023-05-23T04:59:42.793Z,50.78
2023-05-23T05:02:11.616Z,58.65
2023-05-23T05:04:40.859Z,55.30
2023-05-23T05:07:09.621Z,53.45
2023-05-23T05:09:37.605Z,55.78
2023-05-23T05:12:05.935Z,50.50
2023-05-23T05:14:33.588Z,51.75
2023-05-23T05:17:02.877Z,52.20
2023-05-23T05:19:38.936Z,51.72
2023-05-23T05:22:08.366Z,50.63
2023-05-23T05:24:37.638Z,47.55
2023-05-23T05:27:06.438Z,46.03
2023-05-23T05:29:34.357Z,47.78
2023-05-23T05:32:09.293Z,46.00
2023-05-23T05:34:40.634Z,46.65
2023-05-23T05:37:08.518Z,45.88
2023-05-23T05:39:36.258Z,46.35
2023-05-23T05:42:07.844Z,47.22
2023-05-23T05:44:36.535Z,48.83
2023-05-23T05:47:05.193Z,43.80
2023-05-23T05:49:34.254Z,48.83
2023-05-23T05:52:03.915Z,45.95
2023-05-23T05:54:33.162Z,49.28
2023-05-23T05:57:01.422Z,49.33
2023-05-23T05:59:31.127Z,48.20
2023-05-23T06:02:00.783Z,45.55
2023-05-23T06:04:29.485Z,46.72
2023-05-23T06:07:01.935Z,43.63
2023-05-23T06:09:30.767Z,39.95
2023-05-23T06:11:58.276Z,39.65
2023-05-23T06:14:26.085Z,40.72
2023-05-23T06:16:54.038Z,38.85
2023-05-23T06:19:22.242Z,38.33
2023-05-23T06:21:56.789Z,40.85
2023-05-23T06:24:26.597Z,38.53
2023-05-23T06:26:54.504Z,38.53
2023-05-23T06:29:22.340Z,39.83
2023-05-23T06:31:50.062Z,35.65
2023-05-23T06:34:17.919Z,34.90
2023-05-23T06:36:48.914Z,37.17
2023-05-23T06:39:17.240Z,39.17
2023-05-23T06:41:44.764Z,35.38
2023-05-23T06:44:12.059Z,36.13
2023-05-23T06:46:51.120Z,37.67
2023-05-23T06:49:18.447Z,36.60
2023-05-23T06:51:46.663Z,36.78
2023-05-23T06:54:15.398Z,35.85
2023-05-23T06:56:42.925Z,34.03
2023-05-23T06:59:10.648Z,37.38
2023-05-23T07:01:38.233Z,37.97
2023-05-23T07:04:06.683Z,36.67
2023-05-23T07:06:36.627Z,35.10
2023-05-23T07:09:05.531Z,32.88
2023-05-23T07:11:33.253Z,37.92
2023-05-23T07:14:00.899Z,37.55
2023-05-23T07:16:37.606Z,33.90
2023-05-23T07:19:08.572Z,37.90
2023-05-23T07:21:49.111Z,40.22
2023-05-23T07:24:25.298Z,42.17
2023-05-23T07:26:55.638Z,40.35
2023-05-23T07:29:23.683Z,37.88
2023-05-23T07:31:54.270Z,38.90
2023-05-23T07:34:23.195Z,37.83
2023-05-23T07:36:54.761Z,38.15
2023-05-23T07:39:24.579Z,36.67
2023-05-23T07:41:53.588Z,36.58
2023-05-23T07:44:23.963Z,35.47
2023-05-23T07:46:52.927Z,34.63
2023-05-23T07:49:20.996Z,33.88
2023-05-23T07:51:48.375Z,31.45
2023-05-23T07:54:16.812Z,32.50
2023-05-23T07:56:45.260Z,31.00
2023-05-23T07:59:13.536Z,27.45
2023-05-23T08:01:42.358Z,26.10
2023-05-23T08:04:13.698Z,25.75
2023-05-23T08:07:00.953Z,27.20
2023-05-23T08:09:46.448Z,24.40
2023-05-23T08:12:17.102Z,25.35
2023-05-23T08:14:51.864Z,23.83
2023-05-23T08:17:33.010Z,26.48
2023-05-23T08:20:01.441Z,24.15
2023-05-23T08:22:30.964Z,28.67
2023-05-23T08:24:59.505Z,26.52
2023-05-23T08:27:30.391Z,26.85
2023-05-23T08:30:03.911Z,25.25
2023-05-23T08:32:31.615Z,28.63
2023-05-23T08:34:59.133Z,24.52
2023-05-23T08:37:26.861Z,23.92
2023-05-23T08:39:54.145Z,21.05
2023-05-23T08:42:36.401Z,20.90
2023-05-23T08:45:07.170Z,25.13
2023-05-23T08:47:38.726Z,21.42
2023-05-23T08:50:19.306Z,23.08
2023-05-23T08:52:56.034Z,21.00
2023-05-23T08:55:29.344Z,20.08
2023-05-23T08:58:00.313Z,20.88
2023-05-23T09:00:37.003Z,23.02
2023-05-23T09:03:05.441Z,18.65
2023-05-23T09:05:45.281Z,18.50
2023-05-23T09:08:13.256Z,18.67
2023-05-23T09:10:42.932Z,18.73
2023-05-23T09:13:12.705Z,17.92
2023-05-23T09:16:00.419Z,22.65
2023-05-23T09:18:42.500Z,176.93
2023-05-23T09:21:13.596Z,82.32
2023-05-23T09:23:51.098Z,55.50
2023-05-23T09:26:19.791Z,35.03
2023-05-23T09:28:47.128Z,24.42
2023-05-23T09:31:16.344Z,26.17
2023-05-23T09:33:50.228Z,21.60
2023-05-23T09:36:19.580Z,26.55
2023-05-23T09:38:49.045Z,20.23
2023-05-23T09:41:16.600Z,20.75
2023-05-23T09:43:55.110Z,36.85
2023-05-23T09:46:22.969Z,19.83
2023-05-23T09:48:53.057Z,25.30
2023-05-23T09:51:23.575Z,29.27
2023-05-23T09:53:57.048Z,17.65
2023-05-23T09:56:28.504Z,15.63
2023-05-23T09:58:59.024Z,21.40
2023-05-23T10:01:28.742Z,22.20
2023-05-23T10:04:00.027Z,23.35
2023-05-23T10:06:53.356Z,18.20
2023-05-23T10:09:25.795Z,15.57
2023-05-23T10:12:33.207Z,15.43
2023-05-23T10:15:06.960Z,14.60
2023-05-23T10:18:01.278Z,18.02
2023-05-23T10:20:33.462Z,14.30
2023-05-23T10:23:02.746Z,18.05
2023-05-23T10:25:30.442Z,15.32
2023-05-23T10:28:02.382Z,14.85
2023-05-23T10:30:30.892Z,14.88
2023-05-23T10:32:59.780Z,14.60
2023-05-23T10:36:30.817Z,14.65
2023-05-23T10:39:15.432Z,15.18
2023-05-23T10:42:21.673Z,14.30
2023-05-23T10:44:48.916Z,13.40
2023-05-23T10:47:28.754Z,14.98
2023-05-23T10:49:56.734Z,15.38
2023-05-23T10:52:28.007Z,14.00
2023-05-23T10:54:58.376Z,12.52
2023-05-23T10:57:28.811Z,13.32
2023-05-23T10:59:56.542Z,14.75
2023-05-23T11:02:29.210Z,13.82
2023-05-23T11:05:22.907Z,14.05
2023-05-23T11:08:14.304Z,15.45
2023-05-23T11:11:04.708Z,12.20
2023-05-23T11:13:55.939Z,12.85
2023-05-23T11:16:41.065Z,12.77
2023-05-23T11:19:26.079Z,11.60
2023-05-23T11:22:03.689Z,10.45
2023-05-23T11:24:55.580Z,11.15
2023-05-23T11:27:34.800Z,11.23
2023-05-23T11:30:11.026Z,10.35
2023-05-23T11:32:38.556Z,10.27
2023-05-23T11:35:11.542Z,10.65
2023-05-23T11:37:40.200Z,9.13
2023-05-23T11:40:38.545Z,10.82
2023-05-23T11:43:13.914Z,9.98
2023-05-23T11:45:42.867Z,10.20
2023-05-23T11:48:18.125Z,9.30
2023-05-23T11:50:54.470Z,9.50
2023-05-23T11:53:25.651Z,9.82
2023-05-23T11:56:00.357Z,8.18
2023-05-23T11:58:38.428Z,7.38
2023-05-23T12:01:11.484Z,7.88
2023-05-23T12:03:51.264Z,7.18
2023-05-23T12:06:24.808Z,7.72
2023-05-23T12:08:52.889Z,10.25
2023-05-23T12:11:20.631Z,7.47
2023-05-23T12:13:47.958Z,9.80
2023-05-23T12:16:18.549Z,9.95
2023-05-23T12:18:46.087Z,10.55
2023-05-23T12:21:13.235Z,10.70
2023-05-23T12:23:42.113Z,10.52
2023-05-23T12:26:12.391Z,8.80
2023-05-23T12:28:45.479Z,9.25
2023-05-23T12:31:22.378Z,9.43
2023-05-23T12:33:53.190Z,8.98
2023-05-23T12:36:33.121Z,9.70
2023-05-23T12:39:05.831Z,7.85
2023-05-23T12:41:34.034Z,6.95
2023-05-23T12:44:03.076Z,8.55
2023-05-23T12:46:30.445Z,7.65
2023-05-23T12:48:57.790Z,7.97
2023-05-23T12:51:25.106Z,7.55
2023-05-23T12:53:54.816Z,9.23
2023-05-23T12:56:26.016Z,7.93
2023-05-23T12:58:54.313Z,8.90
2023-05-23T13:01:21.998Z,7.13
2023-05-23T13:03:50.726Z,6.97
2023-05-23T13:06:18.460Z,9.82
2023-05-23T13:08:46.124Z,8.25
2023-05-23T13:11:13.820Z,6.93
2023-05-23T13:13:41.794Z,6.70
2023-05-23T13:16:09.678Z,7.90
2023-05-23T13:18:37.525Z,8.02
2023-05-23T13:21:05.475Z,7.03
2023-05-23T13:23:33.574Z,6.13
2023-05-23T13:26:02.786Z,6.88
2023-05-23T13:28:30.051Z,9.43
2023-05-23T13:30:57.348Z,6.80
2023-05-23T13:33:24.782Z,7.15
2023-05-23T13:35:52.622Z,6.93
2023-05-23T13:38:21.143Z,6.72
2023-05-23T13:40:51.124Z,6.07
2023-05-23T13:43:19.034Z,9.57
2023-05-23T13:45:47.442Z,6.78
2023-05-23T13:48:14.920Z,9.48
2023-05-23T13:50:43.664Z,8.00
2023-05-23T13:53:15.285Z,6.00
2023-05-23T13:55:45.365Z,5.28
2023-05-23T13:58:13.079Z,6.10
2023-05-23T14:00:41.264Z,5.15
2023-05-23T14:03:09.920Z,5.70
2023-05-23T14:05:38.923Z,5.75
2023-05-23T14:08:06.865Z,5.65
2023-05-23T14:10:34.514Z,5.13
2023-05-23T14:13:02.080Z,5.25
2023-05-23T14:15:29.835Z,5.20
2023-05-23T14:17:58.573Z,4.95
2023-05-23T14:20:26.334Z,5.70
2023-05-23T14:22:54.162Z,5.28
2023-05-23T14:25:23.242Z,4.88
2023-05-23T14:27:50.713Z,5.22
2023-05-23T14:30:18.312Z,6.30
2023-05-23T14:32:45.728Z,5.03
2023-05-23T14:35:13.252Z,5.15
2023-05-23T14:37:40.798Z,5.88
2023-05-23T14:40:10.384Z,5.55
2023-05-23T14:42:37.904Z,5.15
2023-05-23T14:45:06.386Z,6.32
2023-05-23T14:47:33.969Z,5.90
2023-05-23T14:50:01.514Z,4.43
2023-05-23T14:52:29.785Z,5.93
2023-05-23T14:54:57.322Z,6.13
2023-05-23T14:57:24.677Z,5.68
2023-05-23T14:59:51.863Z,5.03
2023-05-23T15:02:19.925Z,4.22
2023-05-23T15:04:48.617Z,4.70
2023-05-23T15:07:18.359Z,4.57
2023-05-23T15:09:47.692Z,4.80
2023-05-23T15:12:15.505Z,6.18
2023-05-23T15:14:43.595Z,4.85
2023-05-23T15:17:13.052Z,7.10
2023-05-23T15:19:43.220Z,5.07
2023-05-23T15:22:29.856Z,8.13
2023-05-23T15:25:00.725Z,5.70
2023-05-23T15:27:28.015Z,5.10
2023-05-23T15:29:55.314Z,4.65
2023-05-23T15:32:22.721Z,3.80
2023-05-23T15:34:50.436Z,4.57
2023-05-23T15:37:18.258Z,4.55
2023-05-23T15:39:45.684Z,5.05
2023-05-23T15:42:12.884Z,6.07
2023-05-23T15:44:40.312Z,5.50
2023-05-23T15:47:07.566Z,4.18
2023-05-23T15:49:35.891Z,4.63
2023-05-23T15:52:03.250Z,4.13
2023-05-23T15:54:30.602Z,4.30
2023-05-23T15:56:57.984Z,5.03
2023-05-23T15:59:25.326Z,4.38
2023-05-23T16:01:52.685Z,5.60
2023-05-23T16:04:20.107Z,5.18
2023-05-23T16:06:47.500Z,4.55
2023-05-23T16:09:14.895Z,5.15
2023-05-23T16:11:42.835Z,4.90
2023-05-23T16:14:10.119Z,5.28
2023-05-23T16:16:38.359Z,4.97
2023-05-23T16:19:07.784Z,5.93
2023-05-23T16:21:36.571Z,6.65
2023-05-23T16:24:05.809Z,6.75
2023-05-23T16:26:33.329Z,7.10
2023-05-23T16:29:00.729Z,4.43
2023-05-23T16:31:29.480Z,5.47
2023-05-23T16:33:56.862Z,6.80
2023-05-23T16:36:24.137Z,4.82
2023-05-23T16:38:52.972Z,5.65
2023-05-23T16:41:21.980Z,4.97
2023-05-23T16:43:49.258Z,7.18
2023-05-23T16:46:19.000Z,6.38
2023-05-23T16:48:48.685Z,6.13
2023-05-23T16:51:16.629Z,6.28
2023-05-23T16:53:44.331Z,7.45
2023-05-23T16:56:11.700Z,7.80
2023-05-23T16:58:39.118Z,7.57
2023-05-23T17:01:08.091Z,7.97
2023-05-23T17:03:35.656Z,6.97
2023-05-23T17:06:03.440Z,8.48
2023-05-23T17:08:31.084Z,7.50
2023-05-23T17:10:58.458Z,8.60
2023-05-23T17:13:26.204Z,9.52
2023-05-23T17:15:53.536Z,8.27
2023-05-23T17:18:20.912Z,9.70
2023-05-23T17:20:48.553Z,9.43
2023-05-23T17:23:19.011Z,9.25
2023-05-23T17:25:46.462Z,8.23
2023-05-23T17:28:13.775Z,8.45
2023-05-23T17:30:41.128Z,9.18
2023-05-23T17:33:12.456Z,9.13
2023-05-23T17:35:41.767Z,9.00
2023-05-23T17:38:09.211Z,8.05
2023-05-23T17:40:36.501Z,7.60
2023-05-23T17:43:03.888Z,8.18
2023-05-23T17:45:31.498Z,7.80
2023-05-23T17:48:03.329Z,9.30
2023-05-23T17:50:31.028Z,9.43
2023-05-23T17:52:59.126Z,7.45
2023-05-23T17:55:26.721Z,6.85
2023-05-23T17:57:53.941Z,8.38
2023-05-23T18:00:21.733Z,8.10
2023-05-23T18:02:51.108Z,8.75
2023-05-23T18:05:20.731Z,5.90
2023-05-23T18:07:47.963Z,6.25
2023-05-23T18:10:15.537Z,6.57
2023-05-23T18:12:42.944Z,5.40
2023-05-23T18:15:11.116Z,7.40
2023-05-23T18:17:38.476Z,6.32
2023-05-23T18:20:07.494Z,6.53
2023-05-23T18:22:34.921Z,5.25
2023-05-23T18:25:02.300Z,6.70
2023-05-23T18:27:31.400Z,5.65
2023-05-23T18:29:58.869Z,5.45
2023-05-23T18:32:26.286Z,4.88
2023-05-23T18:34:53.571Z,5.75
2023-05-23T18:37:20.843Z,4.88
2023-05-23T18:39:48.220Z,7.15
2023-05-23T18:42:15.525Z,4.93
2023-05-23T18:44:43.083Z,5.32
2023-05-23T18:47:10.714Z,9.13
2023-05-23T18:49:38.744Z,8.25
2023-05-23T18:52:06.822Z,5.15
2023-05-23T18:54:34.373Z,7.45
2023-05-23T18:57:03.251Z,6.15
2023-05-23T18:59:30.891Z,4.00
2023-05-23T19:02:00.309Z,6.63
2023-05-23T19:04:27.753Z,3.22
2023-05-23T19:06:55.238Z,3.53
2023-05-23T19:09:22.632Z,3.42
2023-05-23T19:11:50.178Z,4.72
2023-05-23T19:14:18.024Z,3.22
2023-05-23T19:16:46.454Z,3.60
2023-05-23T19:19:14.749Z,3.70
2023-05-23T19:21:42.763Z,3.58
2023-05-23T19:24:10.467Z,3.65
2023-05-23T19:26:40.333Z,5.55
2023-05-23T19:29:08.113Z,3.05
2023-05-23T19:31:38.410Z,3.10
2023-05-23T19:34:10.310Z,3.97
2023-05-23T19:36:39.174Z,4.65
2023-05-23T19:39:07.586Z,3.08
2023-05-23T19:41:35.392Z,4.10
2023-05-23T19:44:03.356Z,3.63
2023-05-23T19:46:35.256Z,4.90
2023-05-23T19:49:03.889Z,3.22
2023-05-23T19:51:31.847Z,4.45
2023-05-23T19:54:04.874Z,4.47
2023-05-23T19:56:34.648Z,4.20
2023-05-23T19:59:10.944Z,3.70
2023-05-23T20:01:41.905Z,4.28
2023-05-23T20:04:12.869Z,3.47
2023-05-23T20:06:40.903Z,3.75
2023-05-23T20:09:11.882Z,3.08
2023-05-23T20:11:39.795Z,6.05
2023-05-23T20:14:16.833Z,5.47
2023-05-23T20:16:49.296Z,4.28
2023-05-23T20:19:17.158Z,4.45
2023-05-23T20:21:45.862Z,5.65
2023-05-23T20:24:18.086Z,3.88
2023-05-23T20:26:51.279Z,4.15
2023-05-23T20:29:24.110Z,3.55
2023-05-23T20:31:52.788Z,4.00
2023-05-23T20:34:27.128Z,4.10
2023-05-23T20:36:55.037Z,3.83
2023-05-23T20:39:28.177Z,4.90
2023-05-23T20:41:56.276Z,4.40
2023-05-23T20:44:24.551Z,4.80
2023-05-23T20:46:52.456Z,4.72
2023-05-23T20:49:28.097Z,4.13
2023-05-23T20:52:01.610Z,5.35
2023-05-23T20:54:30.328Z,5.25
2023-05-23T20:56:59.000Z,4.75
2023-05-23T20:59:26.965Z,4.10
2023-05-23T21:01:55.106Z,3.90
2023-05-23T21:04:23.274Z,4.85
2023-05-23T21:06:52.624Z,3.72
2023-05-23T21:09:23.576Z,4.35
2023-05-23T21:11:51.414Z,5.72
2023-05-23T21:14:21.457Z,4.72
2023-05-23T21:16:49.035Z,4.97
2023-05-23T21:19:16.897Z,4.93
2023-05-23T21:21:44.777Z,5.22
2023-05-23T21:24:14.444Z,7.20
2023-05-23T21:26:42.416Z,6.93
2023-05-23T21:29:10.193Z,6.05
2023-05-23T21:31:43.427Z,4.45
2023-05-23T21:34:23.072Z,5.07
2023-05-23T21:36:53.625Z,4.53
2023-05-23T21:39:21.284Z,5.38
2023-05-23T21:41:48.939Z,4.90
2023-05-23T21:44:17.776Z,7.20
2023-05-23T21:46:45.897Z,5.50
2023-05-23T21:49:13.690Z,5.40
2023-05-23T21:51:42.393Z,6.03
2023-05-23T21:54:10.906Z,6.57
2023-05-23T21:56:38.915Z,4.70
2023-05-23T21:59:07.201Z,6.13
2023-05-23T22:01:36.166Z,4.97
2023-05-23T22:04:06.827Z,6.68
2023-05-23T22:06:34.639Z,5.43
2023-05-23T22:09:05.550Z,5.43
2023-05-23T22:11:34.337Z,5.03
2023-05-23T22:14:04.802Z,4.45
2023-05-23T22:16:41.821Z,6.53
2023-05-23T22:19:10.356Z,5.88
2023-05-23T22:21:39.244Z,5.82
2023-05-23T22:24:07.754Z,5.90
2023-05-23T22:26:39.283Z,5.25
2023-05-23T22:29:07.254Z,8.60
2023-05-23T22:31:35.623Z,6.47
2023-05-23T22:34:06.469Z,5.43
2023-05-23T22:36:37.824Z,5.85
2023-05-23T22:39:06.028Z,4.35
2023-05-23T22:41:34.539Z,5.03
2023-05-23T22:44:04.791Z,6.45
2023-05-23T22:46:32.338Z,5.15
2023-05-23T22:49:00.667Z,5.30
2023-05-23T22:51:29.472Z,5.00
2023-05-23T22:53:57.501Z,9.43
2023-05-23T22:56:25.248Z,5.90
2023-05-23T22:58:53.028Z,5.55
2023-05-23T23:01:20.684Z,6.18
2023-05-23T23:03:54.131Z,6.07
2023-05-23T23:06:22.141Z,6.50
2023-05-23T23:08:50.002Z,6.68
2023-05-23T23:11:19.888Z,6.97
2023-05-23T23:13:47.381Z,5.60
2023-05-23T23:16:14.746Z,6.15
2023-05-23T23:18:42.161Z,5.53
2023-05-23T23:21:09.663Z,6.20
2023-05-23T23:23:38.341Z,6.28
2023-05-23T23:26:06.057Z,8.07
2023-05-23T23:28:33.760Z,4.80
2023-05-23T23:31:01.516Z,6.35
2023-05-23T23:33:28.880Z,5.07
2023-05-23T23:35:56.529Z,4.88
2023-05-23T23:38:23.922Z,7.45
2023-05-23T23:40:51.318Z,8.60
2023-05-23T23:43:18.878Z,4.70
2023-05-23T23:45:46.447Z,12.20
2023-05-23T23:48:14.888Z,5.78
2023-05-23T23:50:42.775Z,5.05
2023-05-23T23:53:12.648Z,7.03
2023-05-23T23:55:41.296Z,6.35
2023-05-23T23:58:09.013Z,7.75
